Camborne, United Kingdom
Current Conditions -  °F | °C
As of 8:50 AM on Saturday 25 Oct 2014 (Local Time) from EGDR Reporting Station
Rain Showers Rain Showers  
Wind Chill: 54°   Ceiling: 3500
Heat Index: 54°   Visibility: 6mi
Dew Point: 48°   Wind: 7mph
Humidity: 82%   Direction: 270°W
Pressure: 30.06"   Gusts: NA
Location:  50.21°N, 5.3°W
Report Text: EGDR 250750Z 27006KT 9999 VCSH FEW020 BKN035 12/09 Q1018 BLU TEMPO SCT020 WHT
Loading
Personal Weather Stations






























Interactive Weather Map
Tropical Storm Tracking
New forecast layout! Learn more

10-Day Weather Forecast

Advertisements
Track Severe Weather on mobile